Time;durP1;ratioP1;P1;durP2;ratioP2;P2;SDS_P1;SDS_P2;PMS_P1;PMS_P2;Temp;Humidity;BMP_temperature;BMP_pressure;BME280_temperature;BME280_humidity;BME280_pressure;Samples;Min_cycle;Max_cycle;Signal;HPM_P1;HPM_P2
2021/09/28 00:02:06;;;;;;;2.05;1.85;;;;;;;18.76;61.75;101691.03;4966658;28;102225;-53
2021/09/28 00:04:34;;;;;;;2.22;1.90;;;;;;;18.76;61.93;101683.59;4961062;28;102292;-53
2021/09/28 00:07:01;;;;;;;2.00;1.77;;;;;;;18.75;61.98;101687.44;4961294;28;103181;-53
2021/09/28 00:09:28;;;;;;;2.10;1.90;;;;;;;18.75;62.16;101687.44;4969066;28;103901;-53
2021/09/28 00:11:55;;;;;;;3.42;2.05;;;;;;;18.76;62.25;101691.03;4959188;28;102914;-53
2021/09/28 00:14:24;;;;;;;1.97;1.87;;;;;;;18.74;62.17;101688.56;4959797;28;103363;-53
2021/09/28 00:16:51;;;;;;;2.08;1.88;;;;;;;18.75;62.07;101695.72;4959747;28;102569;-55
2021/09/28 00:19:17;;;;;;;2.97;1.65;;;;;;;18.74;61.97;101683.06;4962995;28;104153;-53
2021/09/28 00:21:45;;;;;;;1.90;1.70;;;;;;;18.75;62.06;101689.38;4967411;28;103202;-52
2021/09/28 00:24:14;;;;;;;2.07;1.70;;;;;;;18.74;62.34;101685.81;4966001;28;102865;-53
2021/09/28 00:26:41;;;;;;;2.80;2.08;;;;;;;18.74;62.38;101691.34;4963593;28;102297;-53
2021/09/28 00:29:07;;;;;;;2.17;1.98;;;;;;;18.74;62.35;101694.09;4966304;28;103978;-53
2021/09/28 00:31:34;;;;;;;1.95;1.77;;;;;;;18.75;62.63;101689.38;4968214;28;102134;-52
2021/09/28 00:34:00;;;;;;;1.92;1.77;;;;;;;18.74;62.08;101680.31;4956988;28;102520;-53
2021/09/28 00:36:27;;;;;;;2.00;1.80;;;;;;;18.73;62.44;101681.44;4965144;28;102263;-53
2021/09/28 00:38:55;;;;;;;2.72;1.80;;;;;;;18.73;61.96;101681.44;4967299;28;103042;-53
2021/09/28 00:41:21;;;;;;;1.85;1.73;;;;;;;18.74;62.15;101683.06;4965378;28;102780;-53
2021/09/28 00:43:51;;;;;;;1.88;1.77;;;;;;;18.74;62.15;101683.06;4965905;28;102448;-53
2021/09/28 00:46:18;;;;;;;2.15;1.70;;;;;;;18.73;62.61;101684.19;4958172;28;102404;-53
2021/09/28 00:48:45;;;;;;;2.10;1.92;;;;;;;18.73;62.13;101689.69;4963863;28;103947;-53
2021/09/28 00:51:14;;;;;;;2.20;2.00;;;;;;;18.73;61.96;101689.69;4960023;28;102081;-53
2021/09/28 00:53:42;;;;;;;2.10;2.00;;;;;;;18.73;62.13;101692.47;4968908;28;102609;-53
2021/09/28 00:56:15;;;;;;;2.00;1.80;;;;;;;18.71;62.19;101678.97;4965425;28;102426;-53
2021/09/28 00:58:44;;;;;;;1.90;1.80;;;;;;;18.73;62.63;101689.69;4956400;28;104085;-53
2021/09/28 01:01:13;;;;;;;2.38;2.08;;;;;;;18.71;62.48;101680.91;4967589;28;102177;-52
2021/09/28 01:03:40;;;;;;;2.10;1.90;;;;;;;18.71;62.17;101689.19;4961073;28;102457;-53
2021/09/28 01:06:07;;;;;;;2.00;1.80;;;;;;;18.73;62.41;101697.97;4954435;28;102176;-53
2021/09/28 01:08:35;;;;;;;1.75;1.65;;;;;;;18.72;62.48;101693.59;4967708;28;103940;-53
2021/09/28 01:11:03;;;;;;;2.15;1.92;;;;;;;18.71;62.29;101698.25;4963713;28;101967;-53
2021/09/28 01:13:31;;;;;;;2.45;1.85;;;;;;;18.72;62.40;101696.34;4965668;28;102231;-53
2021/09/28 01:16:10;;;;;;;1.70;1.60;;;;;;;18.72;62.30;101701.88;4961422;28;102834;-53
2021/09/28 01:18:42;;;;;;;1.90;1.80;;;;;;;18.71;62.49;101702.97;4961185;28;104514;-53
2021/09/28 01:21:13;;;;;;;1.80;1.63;;;;;;;18.71;62.54;101691.94;4967594;28;102227;-52
2021/09/28 01:23:45;;;;;;;1.85;1.75;;;;;;;18.71;62.40;101694.69;4954964;28;102473;-52
2021/09/28 01:26:16;;;;;;;1.67;1.55;;;;;;;18.71;62.64;101700.19;4963395;28;102370;-53
2021/09/28 01:28:45;;;;;;;1.48;1.38;;;;;;;18.71;62.60;101698.25;4953253;28;103946;-53
2021/09/28 01:31:13;;;;;;;2.22;2.03;;;;;;;18.70;62.41;101693.03;4955157;28;102601;-52
2021/09/28 01:33:41;;;;;;;2.97;1.70;;;;;;;18.69;62.67;101696.91;4956488;28;102599;-52
2021/09/28 01:36:07;;;;;;;1.95;1.85;;;;;;;18.70;62.44;101693.03;4958424;28;102551;-52
2021/09/28 01:38:35;;;;;;;2.05;1.88;;;;;;;18.70;62.49;101698.53;4959744;28;103462;-53
2021/09/28 01:41:03;;;;;;;2.00;1.80;;;;;;;18.70;62.55;101693.03;4966092;28;102245;-53
2021/09/28 01:43:29;;;;;;;1.60;1.50;;;;;;;18.69;62.33;101692.22;4963777;28;102571;-53
2021/09/28 01:46:05;;;;;;;1.80;1.70;;;;;;;18.70;62.83;101693.03;4959339;28;102501;-53
2021/09/28 01:48:37;;;;;;;1.70;1.60;;;;;;;18.69;62.50;101691.41;4956648;28;103972;-53
2021/09/28 01:51:04;;;;;;;2.85;2.25;;;;;;;18.67;62.42;101693.63;4960931;28;102700;-53
2021/09/28 01:53:31;;;;;;;2.20;2.00;;;;;;;18.69;62.38;101697.72;4956955;28;102493;-53
2021/09/28 01:56:00;;;;;;;2.20;2.05;;;;;;;18.70;62.57;101701.31;4964999;28;103578;-53
2021/09/28 01:58:26;;;;;;;2.38;1.90;;;;;;;18.67;62.85;101693.63;4959469;28;103936;-53
2021/09/28 02:00:53;;;;;;;1.83;1.70;;;;;;;18.69;62.77;101702.44;4961744;28;102346;-52
2021/09/28 02:03:19;;;;;;;1.80;1.70;;;;;;;18.69;62.47;101696.91;4956291;28;102622;-53
2021/09/28 02:05:48;;;;;;;1.85;1.75;;;;;;;18.69;62.93;101702.44;4961724;28;105348;-52
2021/09/28 02:08:14;;;;;;;1.80;1.70;;;;;;;18.69;62.87;101705.19;4959094;28;104017;-52
2021/09/28 02:10:41;;;;;;;2.10;1.90;;;;;;;18.69;62.62;101699.69;4961587;28;102154;-53
2021/09/28 02:13:09;;;;;;;4.03;1.85;;;;;;;18.68;62.72;101706.28;4963830;28;102579;-53
2021/09/28 02:15:35;;;;;;;1.98;1.75;;;;;;;18.67;62.98;101699.16;4959866;28;102113;-53
2021/09/28 02:18:06;;;;;;;1.95;1.80;;;;;;;18.68;63.11;101698.00;4957493;28;103861;-53
2021/09/28 02:20:33;;;;;;;1.70;1.60;;;;;;;18.68;62.85;101700.78;4963526;28;102344;-53
2021/09/28 02:23:00;;;;;;;1.92;1.70;;;;;;;18.68;62.70;101700.78;4963101;28;102587;-53
2021/09/28 02:25:27;;;;;;;2.05;1.90;;;;;;;18.67;62.92;101704.66;4962228;28;102761;-53
2021/09/28 02:27:53;;;;;;;2.20;2.00;;;;;;;18.67;62.89;101710.16;4962035;28;103921;-52
2021/09/28 02:30:21;;;;;;;1.50;1.40;;;;;;;18.66;62.90;101701.09;4958618;28;102468;-53
2021/09/28 02:32:49;;;;;;;2.03;1.80;;;;;;;18.67;62.86;101704.66;4955364;28;101978;-53
2021/09/28 02:35:15;;;;;;;1.77;1.67;;;;;;;18.66;63.17;101706.59;4962884;28;102751;-52
2021/09/28 02:37:42;;;;;;;1.58;1.48;;;;;;;18.66;63.00;101705.78;4965604;28;104123;-52
2021/09/28 02:40:10;;;;;;;2.00;1.77;;;;;;;18.65;62.87;101707.72;4961173;28;102484;-53
2021/09/28 02:42:36;;;;;;;1.60;1.50;;;;;;;18.66;62.71;101705.78;4963126;28;102322;-53
2021/09/28 02:45:04;;;;;;;2.35;1.95;;;;;;;18.66;62.80;101711.31;4962306;28;102271;-52
2021/09/28 02:47:32;;;;;;;2.42;1.80;;;;;;;18.66;63.04;101708.53;4962421;28;104116;-53
2021/09/28 02:50:00;;;;;;;2.70;2.13;;;;;;;18.65;62.72;101707.72;4960065;28;102924;-53
2021/09/28 02:52:26;;;;;;;2.40;2.20;;;;;;;18.66;62.72;101719.56;4959785;28;106239;-52
2021/09/28 03:51:48;;;;;;;3.75;3.40;;;;;;;18.60;62.98;101724.34;4933717;28;103949;-53
2021/09/28 03:54:17;;;;;;;3.47;2.95;;;;;;;18.60;63.32;101721.59;4920691;28;102605;-53
2021/09/28 03:56:43;;;;;;;3.53;3.13;;;;;;;18.60;63.17;101720.78;4919466;28;103911;-52
2021/09/28 03:59:10;;;;;;;3.50;3.20;;;;;;;18.61;63.58;101722.41;4916764;28;104846;-53
2021/09/28 04:01:37;;;;;;;4.68;3.13;;;;;;;18.60;63.51;101718.00;4917867;28;102474;-52
2021/09/28 04:04:04;;;;;;;3.65;2.83;;;;;;;18.59;63.21;101719.97;4919090;28;102943;-53
2021/09/28 04:06:31;;;;;;;3.50;2.92;;;;;;;18.59;63.31;101722.72;4920240;28;104148;-53
2021/09/28 04:08:59;;;;;;;3.67;3.10;;;;;;;18.59;63.28;101728.22;4915025;28;102672;-53
2021/09/28 04:11:25;;;;;;;4.70;2.77;;;;;;;18.59;63.33;101730.16;4914677;28;102698;-53
2021/09/28 04:13:54;;;;;;;;;;;;;;;18.59;63.53;101730.16;4920982;28;102784;-53
2021/09/28 04:16:21;;;;;;;3.53;2.70;;;;;;;18.58;63.63;101734.06;4916441;28;103914;-53
2021/09/28 04:18:49;;;;;;;4.10;3.10;;;;;;;18.58;63.50;101732.13;4918801;28;102728;-54
2021/09/28 04:21:15;;;;;;;2.90;2.60;;;;;;;18.58;63.02;101740.38;4919741;28;102766;-53
2021/09/28 04:23:43;;;;;;;3.40;3.10;;;;;;;18.58;63.17;101740.38;4919340;28;102356;-52
2021/09/28 04:26:12;;;;;;;2.97;2.67;;;;;;;18.59;63.33;101746.72;4919850;28;103941;-52
2021/09/28 04:28:39;;;;;;;3.13;2.83;;;;;;;18.58;63.32;101740.38;4918997;28;102672;-53
2021/09/28 04:31:07;;;;;;;3.38;3.08;;;;;;;18.59;63.71;101752.22;4917864;28;103391;-53
2021/09/28 04:33:35;;;;;;;2.92;2.60;;;;;;;18.58;63.13;101748.66;4917147;28;103432;-53
2021/09/28 04:36:02;;;;;;;2.63;2.40;;;;;;;18.59;63.26;101752.22;4920770;28;104226;-53
2021/09/28 04:38:28;;;;;;;2.80;2.50;;;;;;;18.58;63.46;101751.41;4918018;28;102664;-53
2021/09/28 04:40:55;;;;;;;3.15;2.85;;;;;;;18.57;63.31;101744.25;4917771;28;102200;-53
2021/09/28 04:43:23;;;;;;;3.95;2.92;;;;;;;18.57;63.73;101749.78;4918941;28;104555;-53
2021/09/28 04:45:50;;;;;;;3.28;2.67;;;;;;;18.57;63.66;101748.94;4917441;28;104099;-53
2021/09/28 04:48:17;;;;;;;3.45;3.13;;;;;;;18.58;63.64;101750.59;4919776;28;103275;-53
2021/09/28 04:50:46;;;;;;;3.65;2.92;;;;;;;18.57;63.63;101749.78;4918428;28;102611;-53
2021/09/28 04:53:13;;;;;;;;;;;;;;;18.58;63.52;101745.09;4944581;28;102387;-53
2021/09/28 04:55:39;;;;;;;3.13;2.83;;;;;;;18.58;63.31;101745.09;4956540;28;103927;-53
2021/09/28 04:58:07;;;;;;;3.03;2.45;;;;;;;18.58;63.37;101748.66;4959439;28;103588;-53
2021/09/28 05:00:35;;;;;;;3.00;2.67;;;;;;;18.57;63.41;101747.03;4955848;28;102428;-53
2021/09/28 05:03:01;;;;;;;3.22;2.83;;;;;;;18.58;63.45;101750.59;4955978;28;102592;-53
2021/09/28 05:05:29;;;;;;;3.00;2.70;;;;;;;18.58;63.63;101747.84;4956633;28;103947;-53
2021/09/28 05:07:56;;;;;;;3.08;2.83;;;;;;;18.58;63.21;101761.63;4956392;28;102886;-53
2021/09/28 05:10:24;;;;;;;3.67;2.70;;;;;;;18.59;63.70;101752.22;4956678;28;102063;-53
2021/09/28 05:12:50;;;;;;;2.78;2.50;;;;;;;18.59;63.33;101757.75;4958306;28;102528;-56
2021/09/28 05:15:17;;;;;;;3.03;2.80;;;;;;;18.59;63.33;101757.75;4957356;28;106244;-53
2021/09/28 05:17:51;;;;;;;3.97;2.58;;;;;;;18.60;63.36;101762.13;4957944;28;103436;-53
2021/09/28 05:20:18;;;;;;;2.73;2.50;;;;;;;18.60;63.40;101759.38;4956900;28;102592;-53
2021/09/28 05:22:44;;;;;;;3.03;2.33;;;;;;;18.61;63.46;101772.03;4960233;28;102576;-53
2021/09/28 05:25:11;;;;;;;2.63;2.42;;;;;;;18.61;63.77;101767.34;4957027;28;103001;-53
2021/09/28 05:27:38;;;;;;;3.08;2.78;;;;;;;18.61;63.45;101761.00;4959076;28;102670;-53
2021/09/28 05:30:05;;;;;;;3.03;2.65;;;;;;;18.63;63.67;101764.28;4954749;28;102722;-53
2021/09/28 05:32:32;;;;;;;2.67;2.30;;;;;;;18.62;64.03;101762.66;4952879;28;103703;-53
2021/09/28 05:35:01;;;;;;;3.25;2.60;;;;;;;18.63;63.89;101769.78;4954474;28;102987;-53
2021/09/28 05:37:27;;;;;;;2.65;2.20;;;;;;;18.62;64.08;101768.97;4956624;28;102458;-53
2021/09/28 05:39:54;;;;;;;3.08;2.58;;;;;;;18.61;63.97;101767.34;4962882;28;102120;-53
2021/09/28 05:42:21;;;;;;;3.05;2.20;;;;;;;18.62;63.80;101766.22;4957615;28;102312;-53
2021/09/28 05:44:47;;;;;;;4.75;2.55;;;;;;;18.62;63.90;101768.16;4953952;28;104025;-53
2021/09/28 05:47:14;;;;;;;2.30;2.05;;;;;;;18.62;63.86;101768.16;4955967;28;104468;-53
2021/09/28 05:49:40;;;;;;;2.40;2.20;;;;;;;18.62;63.63;101773.69;4953078;28;102589;-53
2021/09/28 05:52:12;;;;;;;3.33;2.60;;;;;;;18.63;63.71;101769.78;4959873;28;102415;-53
2021/09/28 05:54:47;;;;;;;3.10;2.10;;;;;;;18.61;64.08;101777.53;4955085;28;104140;-53
2021/09/28 05:57:16;;;;;;;2.05;1.85;;;;;;;18.62;63.99;101770.94;4956593;28;103438;-53
2021/09/28 05:59:43;;;;;;;2.72;2.13;;;;;;;18.61;63.51;101783.91;4958331;28;105127;-53
2021/09/28 06:02:10;;;;;;;2.53;2.03;;;;;;;18.61;63.99;101788.56;4959859;28;102556;-53
2021/09/28 09:47:05;;;;;;;42.05;6.90;;;;;;;18.51;62.67;101799.78;5085736;27;102854;-60
2021/09/28 09:49:34;;;;;;;38.33;5.47;;;;;;;18.54;62.07;101799.19;5067601;27;102255;-60
2021/09/28 11:25:51;;;;;;;27.63;6.38;;;;;;;18.81;61.18;101793.78;5089099;27;102791;-60
2021/09/28 11:28:21;;;;;;;25.95;4.13;;;;;;;18.84;60.35;101787.69;5081771;27;102630;-60
2021/09/28 11:30:51;;;;;;;19.35;3.08;;;;;;;18.88;60.52;101788.72;5081427;27;103958;-60
2021/09/28 11:33:18;;;;;;;18.13;3.22;;;;;;;18.93;60.18;101780.38;5085320;27;102578;-60
2021/09/28 11:35:56;;;;;;;11.38;2.97;;;;;;;18.97;59.76;101783.34;5085254;27;102437;-61
2021/09/28 11:38:27;;;;;;;10.30;2.50;;;;;;;19.02;59.41;101787.94;5082780;27;102300;-60
2021/09/28 11:40:59;;;;;;;11.05;2.50;;;;;;;19.07;59.35;101785.09;5083708;27;103878;-60
2021/09/28 11:43:30;;;;;;;5.53;2.40;;;;;;;19.09;59.18;101786.44;5077709;27;102401;-60
2021/09/28 11:45:58;;;;;;;13.38;2.45;;;;;;;19.13;58.67;101775.59;5080478;27;102520;-60
2021/09/28 11:48:25;;;;;;;;;;;;;;;19.17;58.45;101779.41;5082967;27;104178;-61
2021/09/28 11:50:53;;;;;;;8.40;2.42;;;;;;;19.20;58.07;101787.06;5084784;27;103954;-61
2021/09/28 11:53:20;;;;;;;8.10;2.42;;;;;;;19.23;57.51;101788.41;5080946;27;102245;-61
2021/09/28 11:55:47;;;;;;;9.68;2.30;;;;;;;19.27;57.83;101787.50;5080412;27;103454;-61
2021/09/28 12:12:22;;;;;;;8.43;1.98;;;;;;;19.48;56.24;101800.91;5086599;27;102444;-61
2021/09/28 12:15:08;;;;;;;4.03;2.03;;;;;;;19.52;56.02;101799.19;5071261;27;104295;-60
2021/09/28 12:17:41;;;;;;;2.45;1.60;;;;;;;19.55;55.79;101795.81;5058324;27;102191;-60
2021/09/28 12:20:09;;;;;;;7.28;1.95;;;;;;;19.58;55.68;101801.53;5061499;27;102694;-60
2021/09/28 12:22:44;;;;;;;6.28;1.90;;;;;;;19.61;55.65;101803.66;5067957;27;102642;-60
2021/09/28 12:25:13;;;;;;;3.47;1.60;;;;;;;19.64;55.38;101803.09;5060520;27;103865;-60
2021/09/28 12:27:58;;;;;;;2.53;1.20;;;;;;;19.69;55.01;101802.19;5051439;27;102263;-60
2021/09/28 12:30:27;;;;;;;4.25;1.88;;;;;;;19.72;54.99;101806.25;5049835;27;102274;-61
2021/09/28 12:32:55;;;;;;;6.82;1.98;;;;;;;19.73;54.97;101814.25;5052791;27;102335;-60
2021/09/28 12:35:27;;;;;;;4.15;1.67;;;;;;;19.78;54.48;101799.53;5048034;27;105036;-61
2021/09/28 12:37:57;;;;;;;3.80;1.63;;;;;;;19.80;54.68;101806.38;5049518;27;102214;-60
2021/09/28 12:40:25;;;;;;;2.03;1.60;;;;;;;19.82;54.61;101801.34;5048395;27;102516;-60
2021/09/28 12:43:12;;;;;;;2.50;1.70;;;;;;;19.86;54.54;101809.84;5050389;27;102496;-60
2021/09/28 12:45:44;;;;;;;1.98;1.50;;;;;;;19.87;54.29;101809.56;5047640;27;103871;-61
2021/09/28 12:48:11;;;;;;;2.97;1.67;;;;;;;19.89;54.00;101812.81;5051605;27;102811;-60
2021/09/28 12:50:40;;;;;;;2.67;1.85;;;;;;;19.90;53.90;101808.91;5049160;27;102602;-60
2021/09/28 12:53:11;;;;;;;5.88;2.10;;;;;;;19.96;53.92;101811.59;5055116;27;102562;-61
2021/09/28 12:55:40;;;;;;;3.80;1.70;;;;;;;19.97;53.43;101807.69;5051687;27;103807;-60
2021/09/28 12:58:09;;;;;;;4.78;2.00;;;;;;;20.00;53.81;101807.88;5056162;27;102186;-60
2021/09/28 13:00:38;;;;;;;5.90;2.00;;;;;;;20.05;53.90;101815.25;5046739;27;102606;-61
2021/09/28 13:03:15;;;;;;;3.58;1.80;;;;;;;20.04;53.61;101814.44;5052567;27;103757;-61
2021/09/28 13:05:49;;;;;;;3.75;2.00;;;;;;;20.06;53.58;101817.72;5055568;27;103966;-61
2021/09/28 13:08:21;;;;;;;4.57;1.60;;;;;;;20.07;53.49;101819.34;5051545;27;102155;-60
2021/09/28 13:10:49;;;;;;;3.42;2.03;;;;;;;20.11;53.47;101822.31;5054716;27;102667;-61
2021/09/28 13:13:17;;;;;;;1.93;1.60;;;;;;;20.14;53.21;101824.47;5059790;27;102813;-60
2021/09/28 13:15:45;;;;;;;2.85;1.80;;;;;;;20.13;53.13;101826.41;5056968;27;103872;-60
2021/09/28 13:18:12;;;;;;;3.03;1.95;;;;;;;20.14;53.05;101821.69;5066995;27;102342;-61
2021/09/28 13:20:38;;;;;;;3.08;1.95;;;;;;;20.16;53.08;101824.97;5062339;27;102636;-60
2021/09/28 13:23:06;;;;;;;3.28;1.77;;;;;;;20.16;52.75;101828.56;5045316;27;102181;-60
2021/09/28 13:25:34;;;;;;;3.08;1.88;;;;;;;20.20;52.38;101823.22;5047010;27;103948;-60
2021/09/28 13:28:04;;;;;;;2.45;1.83;;;;;;;20.21;52.52;101829.56;5047658;27;102333;-60
2021/09/28 13:30:31;;;;;;;3.70;1.65;;;;;;;20.21;52.29;101824.84;5053018;27;102242;-60
2021/09/28 13:32:59;;;;;;;2.50;1.90;;;;;;;20.26;52.80;101833.03;5057947;27;103360;-60
2021/09/28 13:35:25;;;;;;;2.73;1.70;;;;;;;20.26;52.38;101832.22;5055968;27;103890;-61
2021/09/28 13:37:52;;;;;;;4.07;1.90;;;;;;;20.30;51.89;101838.75;5057088;27;102844;-60
2021/09/28 13:40:20;;;;;;;4.88;1.90;;;;;;;20.32;52.20;101830.97;5056079;27;102039;-61
2021/09/28 13:42:47;;;;;;;3.20;1.80;;;;;;;20.35;52.49;101833.13;5056211;27;104393;-61
2021/09/28 13:45:14;;;;;;;3.70;2.17;;;;;;;20.36;52.07;101835.56;5058364;27;103969;-61
2021/09/28 13:47:41;;;;;;;5.53;2.15;;;;;;;20.37;51.79;101828.91;5057110;27;102288;-61
2021/09/28 13:50:10;;;;;;;3.13;1.85;;;;;;;20.41;51.61;101840.16;5057473;27;102344;-61
2021/09/28 13:52:37;;;;;;;5.45;2.22;;;;;;;20.43;51.91;101842.63;5054378;27;102450;-60
2021/09/28 13:55:06;;;;;;;4.05;2.47;;;;;;;20.45;51.81;101834.84;5050558;27;104015;-61
2021/09/28 13:57:33;;;;;;;3.38;2.30;;;;;;;20.48;51.64;101840.56;5055930;27;102920;-61
2021/09/28 14:00:00;;;;;;;4.57;2.60;;;;;;;20.49;51.87;101833.91;5051817;27;102124;-61
2021/09/28 14:02:26;;;;;;;4.18;2.25;;;;;;;20.51;51.57;101844.69;5054221;27;102297;-61
2021/09/28 14:18:37;;;;;;;10.52;2.72;;;;;;;20.20;50.09;101839.81;5021830;27;102475;-64
2021/09/28 14:21:05;;;;;;;5.90;3.00;;;;;;;20.13;50.29;101839.41;4988638;28;103543;-65
2021/09/28 14:23:32;;;;;;;10.60;2.72;;;;;;;20.06;50.11;101839.81;4992165;28;103960;-65
2021/09/28 14:25:58;;;;;;;8.63;3.25;;;;;;;20.00;49.78;101837.47;4983718;27;102085;-65
2021/09/28 14:28:25;;;;;;;5.53;2.67;;;;;;;19.93;49.83;101844.22;4968354;28;102437;-65
2021/09/28 14:30:52;;;;;;;5.05;2.83;;;;;;;19.87;50.07;101847.38;4967807;28;102777;-64
2021/09/28 14:33:19;;;;;;;5.18;2.70;;;;;;;19.83;50.34;101846.38;4970903;28;104341;-65
2021/09/28 14:35:47;;;;;;;4.93;3.05;;;;;;;19.79;50.29;101840.63;4973902;28;101998;-65
2021/09/28 14:38:13;;;;;;;5.43;3.03;;;;;;;19.72;50.46;101848.50;4977783;28;102170;-64
2021/09/28 14:40:41;;;;;;;7.10;3.47;;;;;;;19.67;50.30;101848.63;4966958;28;102767;-64
2021/09/28 14:43:08;;;;;;;4.55;3.20;;;;;;;19.61;50.48;101849.81;4973652;28;104205;-64
2021/09/28 14:45:34;;;;;;;8.90;3.42;;;;;;;19.56;50.45;101852.66;4979390;27;102399;-64
2021/09/28 14:48:04;;;;;;;5.82;3.85;;;;;;;19.52;50.69;101857.16;4971553;28;102101;-65
2021/09/28 14:50:30;;;;;;;7.50;4.00;;;;;;;19.47;50.33;101854.47;4972965;28;102379;-65
2021/09/28 14:52:58;;;;;;;6.38;3.53;;;;;;;19.43;50.28;101855.09;4971238;28;103704;-65
2021/09/28 14:55:25;;;;;;;10.37;3.97;;;;;;;19.39;50.62;101854.06;4971752;28;101987;-65
2021/09/28 14:57:52;;;;;;;5.90;3.47;;;;;;;19.36;50.49;101853.84;4972249;28;102444;-65
2021/09/28 15:00:20;;;;;;;6.60;4.20;;;;;;;19.32;50.43;101858.34;4972758;28;102640;-65
2021/09/28 15:02:47;;;;;;;7.38;3.45;;;;;;;19.29;50.81;101858.94;4965978;28;106741;-65
2021/09/28 15:05:13;;;;;;;6.80;3.05;;;;;;;19.26;51.36;101859.53;4963940;28;102409;-65
2021/09/28 15:07:40;;;;;;;5.03;2.95;;;;;;;19.22;51.61;101859.31;4958767;28;102200;-64
2021/09/28 15:10:10;;;;;;;;;;;;;;;19.19;51.06;101859.94;4965377;28;103052;-64
2021/09/28 15:12:37;;;;;;;6.78;3.25;;;;;;;19.16;51.43;101866.06;4964561;28;103712;-64
2021/09/28 15:15:05;;;;;;;4.95;2.72;;;;;;;19.13;51.38;101869.41;4964175;28;102266;-65
2021/09/28 15:17:32;;;;;;;3.67;2.53;;;;;;;19.10;51.43;101870.03;4962229;28;102596;-62
2021/09/28 15:19:58;;;;;;;3.25;2.45;;;;;;;19.07;51.31;101873.38;4944784;28;103739;-66
2021/09/28 15:22:25;;;;;;;6.30;2.95;;;;;;;19.06;51.83;101871.75;4941271;28;104262;-57
2021/09/28 15:24:51;;;;;;;4.65;3.05;;;;;;;19.02;51.85;101873.47;4954008;28;102268;-65
2021/09/28 15:27:19;;;;;;;8.90;3.40;;;;;;;19.01;51.81;101880.13;4954016;28;102258;-65
2021/09/28 15:29:46;;;;;;;8.23;3.35;;;;;;;18.99;52.33;101879.59;4953242;28;102215;-65
2021/09/28 15:32:16;;;;;;;11.50;3.95;;;;;;;18.95;52.11;101871.09;4951188;28;104234;-65
2021/09/28 15:34:43;;;;;;;5.43;4.53;;;;;;;18.92;52.39;101877.19;4972324;28;102600;-65
2021/09/28 15:37:10;;;;;;;6.85;4.03;;;;;;;18.90;52.16;101877.50;4971562;28;102216;-65
2021/09/28 15:39:41;;;;;;;6.50;4.78;;;;;;;18.88;52.35;101876.97;4974780;28;102460;-65
2021/09/28 15:42:07;;;;;;;7.40;5.13;;;;;;;18.87;52.55;101880.03;4944546;28;107828;-65
2021/09/28 15:44:36;;;;;;;10.32;4.95;;;;;;;18.85;52.45;101877.56;4948421;28;105411;-64
2021/09/28 15:47:02;;;;;;;5.95;4.30;;;;;;;18.84;52.72;101875.13;4942475;28;102921;-65
2021/09/28 15:49:29;;;;;;;8.60;6.05;;;;;;;18.82;53.12;101882.88;4947649;28;102713;-64
2021/09/28 15:51:58;;;;;;;15.43;10.00;;;;;;;18.80;53.16;101887.88;4949047;28;104782;-64
2021/09/28 15:54:24;;;;;;;23.52;14.90;;;;;;;18.80;53.11;101885.13;4949520;28;105569;-65
2021/09/28 15:56:52;;;;;;;18.38;12.15;;;;;;;18.78;53.21;101893.69;4946169;28;103981;-66
2021/09/28 15:59:19;;;;;;;38.42;11.88;;;;;;;18.75;53.14;101888.75;4950695;28;102460;-64
2021/09/28 16:01:47;;;;;;;16.52;8.25;;;;;;;18.73;53.43;101891.00;4951838;28;104012;-65
2021/09/28 16:04:15;;;;;;;18.38;8.43;;;;;;;18.73;53.11;101899.28;4955814;28;102110;-65
2021/09/28 16:06:42;;;;;;;;;;;;;;;18.72;53.34;101905.91;4940182;28;102478;-65
2021/09/28 16:09:10;;;;;;;13.95;6.55;;;;;;;18.70;53.27;101899.84;4949860;28;102241;-65
2021/09/28 16:11:37;;;;;;;20.10;11.25;;;;;;;18.69;53.36;101909.22;4945946;28;103087;-65
2021/09/28 16:14:04;;;;;;;68.85;33.47;;;;;;;18.67;53.87;101911.44;4946640;28;103724;-65
2021/09/28 16:16:31;;;;;;;93.13;42.55;;;;;;;18.66;53.65;101907.88;4951542;28;102169;-65
2021/09/28 16:19:00;;;;;;;96.70;41.40;;;;;;;18.63;53.32;101907.66;4955881;28;103156;-65
2021/09/28 16:21:26;;;;;;;120.28;56.65;;;;;;;18.62;53.61;101915.09;4953729;28;103961;-65
2021/09/28 16:23:53;;;;;;;93.28;42.95;;;;;;;18.61;53.59;101915.38;4956963;28;102408;-65
2021/09/28 16:26:21;;;;;;;57.67;27.58;;;;;;;18.60;53.92;101913.75;4956566;28;102451;-65
2021/09/28 16:28:47;;;;;;;55.25;32.15;;;;;;;18.58;53.90;101919.59;4957805;28;102477;-65
2021/09/28 16:31:14;;;;;;;76.68;41.67;;;;;;;18.57;53.69;101926.22;4955139;28;103993;-65
2021/09/28 16:33:41;;;;;;;56.25;32.13;;;;;;;18.56;53.72;101923.75;4957287;28;102201;-65
2021/09/28 16:36:10;;;;;;;52.03;28.45;;;;;;;18.54;54.29;101926.81;4948427;28;102317;-65
2021/09/28 16:38:37;;;;;;;44.65;27.65;;;;;;;18.52;54.44;101930.97;4946974;28;102467;-66
2021/09/28 16:41:07;;;;;;;54.63;29.70;;;;;;;18.51;54.47;101926.56;4946824;28;104117;-66
2021/09/28 16:43:36;;;;;;;40.10;22.02;;;;;;;18.48;54.22;101928.78;4948382;28;102380;-66
2021/09/28 16:46:03;;;;;;;37.90;19.63;;;;;;;18.46;54.05;101931.03;4950422;28;102193;-66
2021/09/28 16:48:30;;;;;;;39.75;18.50;;;;;;;18.46;54.38;101939.31;4952557;28;102488;-66
2021/09/28 16:50:57;;;;;;;38.65;18.15;;;;;;;18.44;54.40;101936.00;4952764;28;103947;-65
2021/09/28 16:53:25;;;;;;;37.00;17.33;;;;;;;18.43;54.36;101939.09;4954208;28;102241;-66
2021/09/28 16:55:52;;;;;;;40.00;16.43;;;;;;;18.42;54.69;101943.75;4953560;28;103552;-65
2021/09/28 16:58:19;;;;;;;44.08;19.83;;;;;;;18.41;54.57;101950.38;4954507;28;102519;-65
2021/09/28 17:00:45;;;;;;;40.03;18.98;;;;;;;18.39;54.92;101946.28;4953095;28;103889;-66
2021/09/28 17:03:12;;;;;;;38.58;15.32;;;;;;;18.38;54.92;101950.97;4954365;28;102422;-59
2021/09/28 17:05:38;;;;;;;72.43;22.13;;;;;;;18.36;54.97;101947.69;4952555;28;103717;-59
2021/09/28 17:08:06;;;;;;;67.43;24.70;;;;;;;18.35;54.91;101951.56;4950151;28;102607;-53
2021/09/28 17:10:34;;;;;;;57.13;24.10;;;;;;;18.36;55.08;101957.91;4943282;28;103713;-59
2021/09/28 17:13:01;;;;;;;42.80;19.43;;;;;;;18.34;55.13;101960.13;4940809;28;103976;-59
2021/09/28 17:15:28;;;;;;;33.47;16.25;;;;;;;18.32;55.21;101956.81;4942974;28;102431;-59
2021/09/28 17:17:55;;;;;;;27.13;15.90;;;;;;;18.32;54.79;101956.81;4952399;28;102594;-58
2021/09/28 17:20:23;;;;;;;27.48;14.43;;;;;;;18.29;55.20;101958.25;4956077;28;103910;-58
2021/09/28 17:22:51;;;;;;;20.75;12.55;;;;;;;18.28;54.99;101955.78;4951043;28;102335;-58
2021/09/28 17:25:19;;;;;;;18.92;11.35;;;;;;;18.27;55.07;101954.97;4954269;28;102643;-60
2021/09/28 17:27:48;;;;;;;18.00;10.82;;;;;;;18.25;54.79;101962.72;4948311;28;102519;-58
2021/09/28 17:30:16;;;;;;;19.25;11.63;;;;;;;18.24;55.02;101961.06;4948315;28;104019;-58
2021/09/28 17:32:43;;;;;;;18.33;11.70;;;;;;;18.23;55.33;101959.41;4948445;28;102293;-58
2021/09/28 17:35:12;;;;;;;21.75;12.40;;;;;;;18.23;55.05;101964.94;4950732;28;102190;-58
2021/09/28 17:37:39;;;;;;;21.92;12.50;;;;;;;18.20;55.08;101955.31;4948221;28;102085;-58
2021/09/28 17:40:07;;;;;;;19.75;13.35;;;;;;;18.20;55.41;101962.75;4953168;28;103858;-58
2021/09/28 17:42:35;;;;;;;;;;;;;;;18.19;55.38;101963.88;4950228;28;102458;-58
2021/09/28 17:45:04;;;;;;;24.42;13.20;;;;;;;18.18;55.54;101962.25;4952956;28;102348;-58
2021/09/28 17:47:32;;;;;;;27.58;14.35;;;;;;;18.16;55.11;101970.78;4955928;28;102420;-58
2021/09/28 17:49:59;;;;;;;24.25;13.80;;;;;;;18.14;55.29;101970.28;4952302;28;105011;-58
2021/09/28 17:52:25;;;;;;;26.90;14.23;;;;;;;18.13;55.26;101970.53;4954098;28;102183;-59
2021/09/28 17:57:24;;;;;;;17.58;12.45;;;;;;;18.11;55.06;101972.78;4954552;28;102468;-58
2021/09/28 17:59:53;;;;;;;17.45;12.32;;;;;;;18.10;55.46;101982.16;4950983;28;103850;-58
2021/09/28 18:02:23;;;;;;;21.88;12.27;;;;;;;18.09;55.13;101977.75;4967414;28;102321;-56